Huyton, United Kingdom
Current Conditions -  °F | °C
As of 2:50 PM on Friday 28 Nov 2014 (Local Time) from EGGP Reporting Station
Broken Clouds Broken Clouds  
Wind Chill: 52°   Ceiling: 3100
Heat Index: 52°   Visibility: 6mi
Dew Point: 48°   Wind: 10mph
Humidity: 88%   Direction: 70°ENE
Pressure: 29.68"   Gusts: NA
Location:  53.41°N, 2.84°W
Report Text: EGGP 281450Z 07009KT 9999 FEW022 BKN031 11/09 Q1005
Loading
Personal Weather Stations






























Interactive Weather Map New forecast layout! Learn more

10-Day Weather Forecast

Advertisements
Track Severe Weather on mobile